createdAt,value
2018-08-03T00:01:49.415Z,26.01
2018-08-03T00:04:18.735Z,26.04
2018-08-03T00:06:47.337Z,26.00
2018-08-03T00:09:16.949Z,25.91
2018-08-03T00:11:45.831Z,25.91
2018-08-03T00:14:15.826Z,25.95
2018-08-03T00:16:45.670Z,25.97
2018-08-03T00:19:15.038Z,25.99
2018-08-03T00:21:43.710Z,25.96
2018-08-03T00:24:14.161Z,25.93
2018-08-03T00:26:43.507Z,25.80
2018-08-03T00:29:12.390Z,25.72
2018-08-03T00:31:42.526Z,25.67
2018-08-03T00:34:12.155Z,25.70
2018-08-03T00:36:40.860Z,25.72
2018-08-03T00:39:11.322Z,25.58
2018-08-03T00:41:40.530Z,25.52
2018-08-03T00:44:11.416Z,25.48
2018-08-03T00:46:40.630Z,25.40
2018-08-03T00:49:09.339Z,25.43
2018-08-03T00:51:37.989Z,25.47
2018-08-03T00:54:06.693Z,25.44
2018-08-03T00:56:36.162Z,25.38
2018-08-03T00:59:06.839Z,25.38
2018-08-03T01:01:36.365Z,25.37
2018-08-03T01:04:06.190Z,25.35
2018-08-03T01:06:34.897Z,25.35
2018-08-03T01:09:03.807Z,25.38
2018-08-03T01:11:32.535Z,25.31
2018-08-03T01:14:01.189Z,25.28
2018-08-03T01:16:32.251Z,25.22
2018-08-03T01:19:01.471Z,25.22
2018-08-03T01:21:30.713Z,25.24
2018-08-03T01:24:00.254Z,25.16
2018-08-03T01:26:30.095Z,25.14
2018-08-03T01:28:58.772Z,25.07
2018-08-03T01:31:27.518Z,25.08
2018-08-03T01:33:56.165Z,25.02
2018-08-03T01:36:24.930Z,25.00
2018-08-03T01:38:54.441Z,25.04
2018-08-03T01:41:23.452Z,24.91
2018-08-03T01:43:52.650Z,24.99
2018-08-03T01:46:22.954Z,25.03
2018-08-03T01:48:52.299Z,25.06
2018-08-03T01:51:21.496Z,25.03
2018-08-03T01:53:51.057Z,24.95
2018-08-03T01:56:19.739Z,24.92
2018-08-03T01:58:49.426Z,24.88
2018-08-03T02:01:18.929Z,24.84
2018-08-03T02:03:47.831Z,24.92
2018-08-03T02:06:18.357Z,24.89
2018-08-03T02:08:48.253Z,24.80
2018-08-03T02:11:17.628Z,24.79
2018-08-03T02:13:47.738Z,24.77
2018-08-03T02:16:17.799Z,24.74
2018-08-03T02:18:47.232Z,24.72
2018-08-03T02:21:16.733Z,24.67
2018-08-03T02:23:46.007Z,24.63
2018-08-03T02:26:15.214Z,24.53
2018-08-03T02:28:43.923Z,24.55
2018-08-03T02:31:13.038Z,24.56
2018-08-03T02:33:42.364Z,24.46
2018-08-03T02:36:12.857Z,24.43
2018-08-03T02:38:42.651Z,24.48
2018-08-03T02:41:12.253Z,24.45
2018-08-03T02:43:41.673Z,24.43
2018-08-03T02:46:10.358Z,24.35
2018-08-03T02:48:41.375Z,24.38
2018-08-03T02:51:10.585Z,24.41
2018-08-03T02:53:40.805Z,24.28
2018-08-03T02:56:09.443Z,24.27
2018-08-03T02:58:38.608Z,23.98
2018-08-03T03:01:08.257Z,24.07
2018-08-03T03:03:37.652Z,24.15
2018-08-03T03:06:07.432Z,24.19
2018-08-03T03:08:36.767Z,24.20
2018-08-03T03:11:06.340Z,24.19
2018-08-03T03:13:35.937Z,24.00
2018-08-03T03:16:05.412Z,23.83
2018-08-03T03:18:34.584Z,23.72
2018-08-03T03:21:03.390Z,23.60
2018-08-03T03:23:33.158Z,23.62
2018-08-03T03:26:03.078Z,23.68
2018-08-03T03:28:32.484Z,23.62
2018-08-03T03:31:01.961Z,23.71
2018-08-03T03:33:31.212Z,23.74
2018-08-03T03:36:00.469Z,23.79
2018-08-03T03:38:29.278Z,23.79
2018-08-03T03:40:58.751Z,23.77
2018-08-03T03:43:29.265Z,23.80
2018-08-03T03:45:58.930Z,23.80
2018-08-03T03:48:29.367Z,23.77
2018-08-03T03:50:59.450Z,23.82
2018-08-03T03:53:28.034Z,23.79
2018-08-03T03:55:56.635Z,23.80
2018-08-03T03:58:25.884Z,23.74
2018-08-03T04:00:54.731Z,23.72
2018-08-03T04:03:23.571Z,23.81
2018-08-03T04:05:52.352Z,23.81
2018-08-03T04:08:21.243Z,23.79
2018-08-03T04:10:49.945Z,23.77
2018-08-03T04:13:19.200Z,23.70
2018-08-03T04:15:47.910Z,23.66
2018-08-03T04:18:21.554Z,23.65
2018-08-03T04:20:51.523Z,23.64
2018-08-03T04:23:21.569Z,23.72
2018-08-03T04:25:51.575Z,23.73
2018-08-03T04:28:20.834Z,23.70
2018-08-03T04:30:50.994Z,23.70
2018-08-03T04:33:20.505Z,23.74
2018-08-03T04:35:49.225Z,23.77
2018-08-03T04:38:17.803Z,23.83
2018-08-03T04:40:47.030Z,23.85
2018-08-03T04:43:16.481Z,23.91
2018-08-03T04:45:45.875Z,23.88
2018-08-03T04:48:14.621Z,23.89
2018-08-03T04:50:44.324Z,23.94
2018-08-03T04:53:13.538Z,23.99
2018-08-03T04:55:43.015Z,24.01
2018-08-03T04:58:11.660Z,24.04
2018-08-03T05:00:40.298Z,24.06
2018-08-03T05:03:08.951Z,23.95
2018-08-03T05:05:37.600Z,23.90
2018-08-03T05:08:06.516Z,23.88
2018-08-03T05:10:35.180Z,23.89
2018-08-03T05:13:03.778Z,23.91
2018-08-03T05:15:32.435Z,24.01
2018-08-03T05:18:01.116Z,24.09
2018-08-03T05:20:30.378Z,24.14
2018-08-03T05:22:58.982Z,24.17
2018-08-03T05:25:27.736Z,24.22
2018-08-03T05:27:56.329Z,24.29
2018-08-03T05:30:25.098Z,24.35
2018-08-03T05:32:53.675Z,24.46
2018-08-03T05:35:22.336Z,24.52
2018-08-03T05:37:52.214Z,24.56
2018-08-03T05:40:22.143Z,24.66
2018-08-03T05:42:51.593Z,24.74
2018-08-03T05:45:21.094Z,24.83
2018-08-03T05:47:50.943Z,24.85
2018-08-03T05:50:19.902Z,24.95
2018-08-03T05:52:48.652Z,24.98
2018-08-03T05:55:18.855Z,25.08
2018-08-03T05:57:47.572Z,25.19
2018-08-03T06:00:16.222Z,25.14
2018-08-03T06:02:44.903Z,25.08
2018-08-03T06:05:14.505Z,25.22
2018-08-03T06:07:43.114Z,25.41
2018-08-03T06:10:12.563Z,25.71
2018-08-03T06:12:41.779Z,27.03
2018-08-03T06:15:11.502Z,28.71
2018-08-03T06:17:41.072Z,29.79
2018-08-03T06:20:12.107Z,30.68
2018-08-03T06:22:41.099Z,31.45
2018-08-03T06:25:10.498Z,32.01
2018-08-03T06:27:39.185Z,31.29
2018-08-03T06:30:10.142Z,29.79
2018-08-03T06:32:39.314Z,28.92
2018-08-03T06:35:08.248Z,28.41
2018-08-03T06:37:37.222Z,28.06
2018-08-03T06:40:05.916Z,27.76
2018-08-03T06:42:34.605Z,27.70
2018-08-03T06:45:03.307Z,27.56
2018-08-03T06:47:31.928Z,27.47
2018-08-03T06:50:00.582Z,27.48
2018-08-03T06:52:29.859Z,27.43
2018-08-03T06:54:58.529Z,27.44
2018-08-03T06:57:27.929Z,27.42
2018-08-03T06:59:56.532Z,27.51
2018-08-03T07:02:25.155Z,27.59
2018-08-03T07:04:54.181Z,27.51
2018-08-03T07:07:22.799Z,27.52
2018-08-03T07:09:51.461Z,27.63
2018-08-03T07:12:20.206Z,27.67
2018-08-03T07:14:48.868Z,27.79
2018-08-03T07:17:17.520Z,27.84
2018-08-03T07:19:46.171Z,27.84
2018-08-03T07:22:14.874Z,27.89
2018-08-03T07:24:44.236Z,27.74
2018-08-03T07:27:13.511Z,27.85
2018-08-03T07:29:42.174Z,28.00
2018-08-03T07:32:10.819Z,28.12
2018-08-03T07:34:39.474Z,28.27
2018-08-03T07:37:08.181Z,28.15
2018-08-03T07:39:37.751Z,28.29
2018-08-03T07:42:06.434Z,28.38
2018-08-03T07:44:35.106Z,28.37
2018-08-03T07:47:03.761Z,28.46
2018-08-03T07:49:32.450Z,28.52
2018-08-03T07:52:01.082Z,28.64
2018-08-03T07:54:29.782Z,28.70
2018-08-03T07:56:59.837Z,28.76
2018-08-03T07:59:28.742Z,28.89
2018-08-03T08:01:58.646Z,28.95
2018-08-03T08:04:27.941Z,29.08
2018-08-03T08:06:56.903Z,29.16
2018-08-03T08:09:26.286Z,29.21
2018-08-03T08:11:56.810Z,29.37
2018-08-03T08:14:26.817Z,29.44
2018-08-03T08:16:56.786Z,29.41
2018-08-03T08:19:26.201Z,29.54
2018-08-03T08:21:56.026Z,29.74
2018-08-03T08:24:25.360Z,29.75
2018-08-03T08:26:54.905Z,29.89
2018-08-03T08:29:24.487Z,29.77
2018-08-03T08:31:53.140Z,29.85
2018-08-03T08:34:21.795Z,29.85
2018-08-03T08:36:50.519Z,29.93
2018-08-03T08:39:19.301Z,30.03
2018-08-03T08:41:48.138Z,30.02
2018-08-03T08:44:16.791Z,30.13
2018-08-03T08:46:45.477Z,30.30
2018-08-03T08:49:14.206Z,30.30
2018-08-03T08:51:43.575Z,30.42
2018-08-03T08:54:13.216Z,30.58
2018-08-03T08:56:41.873Z,30.66
2018-08-03T08:59:10.616Z,30.80
2018-08-03T09:01:39.368Z,30.94
2018-08-03T09:04:08.225Z,31.10
2018-08-03T09:06:36.927Z,31.25
2018-08-03T09:09:08.339Z,31.44
2018-08-03T09:11:37.082Z,31.50
2018-08-03T09:14:05.760Z,31.53
2018-08-03T09:16:34.433Z,31.62
2018-08-03T09:19:03.400Z,31.72
2018-08-03T09:21:32.295Z,31.73
2018-08-03T09:24:00.936Z,31.83
2018-08-03T09:26:30.300Z,31.95
2018-08-03T09:28:58.948Z,32.08
2018-08-03T09:31:27.600Z,32.15
2018-08-03T09:33:56.235Z,32.15
2018-08-03T09:36:24.897Z,32.26
2018-08-03T09:38:53.664Z,32.44
2018-08-03T09:41:22.981Z,32.61
2018-08-03T09:43:51.652Z,32.55
2018-08-03T09:46:20.333Z,32.56
2018-08-03T09:48:49.242Z,32.71
2018-08-03T09:51:18.239Z,32.88
2018-08-03T09:53:47.624Z,32.92
2018-08-03T09:56:16.270Z,32.93
2018-08-03T09:58:45.504Z,33.12
2018-08-03T10:01:14.221Z,33.20
2018-08-03T10:03:43.461Z,33.14
2018-08-03T10:06:12.951Z,33.17
2018-08-03T10:08:41.737Z,33.15
2018-08-03T10:11:10.622Z,33.18
2018-08-03T10:13:39.456Z,33.20
2018-08-03T10:16:08.153Z,33.20
2018-08-03T10:18:36.835Z,33.28
2018-08-03T10:21:05.836Z,33.28
2018-08-03T10:23:34.440Z,33.43
2018-08-03T10:26:03.733Z,33.44
2018-08-03T10:28:32.504Z,33.65
2018-08-03T10:31:02.047Z,33.75
2018-08-03T10:33:30.677Z,33.91
2018-08-03T10:35:59.824Z,34.02
2018-08-03T10:38:28.576Z,33.93
2018-08-03T10:40:57.370Z,34.02
2018-08-03T10:43:26.467Z,34.00
2018-08-03T10:45:57.092Z,34.16
2018-08-03T10:48:25.749Z,34.37
2018-08-03T10:50:55.989Z,34.38
2018-08-03T10:53:24.729Z,34.32
2018-08-03T10:55:54.895Z,34.40
2018-08-03T10:58:23.725Z,34.52
2018-08-03T11:00:52.721Z,34.40
2018-08-03T11:03:22.242Z,34.62
2018-08-03T11:05:50.889Z,34.71
2018-08-03T11:08:19.570Z,34.74
2018-08-03T11:10:48.742Z,34.71
2018-08-03T11:13:17.355Z,34.85
2018-08-03T11:15:46.045Z,34.70
2018-08-03T11:18:14.726Z,34.80
2018-08-03T11:20:43.859Z,34.74
2018-08-03T11:23:12.492Z,34.90
2018-08-03T11:25:41.699Z,35.03
2018-08-03T11:30:45.968Z,34.99
2018-08-03T11:33:14.997Z,34.91
2018-08-03T11:35:43.683Z,34.83
2018-08-03T11:38:12.511Z,35.10
2018-08-03T11:40:41.592Z,35.32
2018-08-03T11:43:10.420Z,35.44
2018-08-03T11:45:39.388Z,35.48
2018-08-03T11:48:08.708Z,35.61
2018-08-03T11:50:37.539Z,35.59
2018-08-03T11:53:06.241Z,35.41
2018-08-03T11:55:35.834Z,35.14
2018-08-03T11:58:05.399Z,35.14
2018-08-03T12:00:34.101Z,35.21
2018-08-03T12:03:03.693Z,35.13
2018-08-03T12:05:32.947Z,34.87
2018-08-03T12:08:02.074Z,35.01
2018-08-03T12:10:30.738Z,35.01
2018-08-03T12:12:59.650Z,35.04
2018-08-03T12:15:28.504Z,35.03
2018-08-03T12:17:57.360Z,35.23
2018-08-03T12:20:26.775Z,35.35
2018-08-03T12:22:55.617Z,35.43
2018-08-03T12:25:24.367Z,35.51
2018-08-03T12:27:53.051Z,35.64
2018-08-03T12:30:22.535Z,35.68
2018-08-03T12:32:51.326Z,35.80
2018-08-03T12:35:20.383Z,35.87
2018-08-03T12:37:49.092Z,35.92
2018-08-03T12:40:18.084Z,35.86
2018-08-03T12:42:47.552Z,35.89
2018-08-03T12:45:16.992Z,36.07
2018-08-03T12:47:46.451Z,36.84
2018-08-03T12:50:16.047Z,38.51
2018-08-03T12:52:45.583Z,39.71
2018-08-03T12:55:14.305Z,40.31
2018-08-03T12:57:43.935Z,39.95
2018-08-03T13:00:13.161Z,39.57
2018-08-03T13:02:41.891Z,39.04
2018-08-03T13:05:10.592Z,38.03
2018-08-03T13:07:40.139Z,37.52
2018-08-03T13:10:09.042Z,36.90
2018-08-03T13:12:38.131Z,36.67
2018-08-03T13:15:08.181Z,36.44
2018-08-03T13:17:37.089Z,36.23
2018-08-03T13:20:07.985Z,36.82
2018-08-03T13:22:37.532Z,38.53
2018-08-03T13:25:06.573Z,39.66
2018-08-03T13:27:35.209Z,40.68
2018-08-03T13:30:04.008Z,41.19
2018-08-03T13:32:33.421Z,41.39
2018-08-03T13:35:02.054Z,40.85
2018-08-03T13:37:30.828Z,40.54
2018-08-03T13:39:59.556Z,40.46
2018-08-03T13:42:28.544Z,40.45
2018-08-03T13:44:57.240Z,40.45
2018-08-03T13:47:25.873Z,40.78
2018-08-03T13:49:54.587Z,40.93
2018-08-03T13:52:23.260Z,40.38
2018-08-03T13:54:51.900Z,40.54
2018-08-03T13:57:20.883Z,40.70
2018-08-03T13:59:49.484Z,41.60
2018-08-03T14:02:20.581Z,41.69
2018-08-03T14:04:49.188Z,42.23
2018-08-03T14:07:17.868Z,41.90
2018-08-03T14:09:46.737Z,42.23
2018-08-03T14:12:15.404Z,41.97
2018-08-03T14:14:44.040Z,41.07
2018-08-03T14:17:14.338Z,40.22
2018-08-03T14:19:45.206Z,40.19
2018-08-03T14:22:14.042Z,40.47
2018-08-03T14:24:42.686Z,40.74
2018-08-03T14:27:11.357Z,40.38
2018-08-03T14:29:40.087Z,40.14
2018-08-03T14:32:09.942Z,40.13
2018-08-03T14:34:38.619Z,40.42
2018-08-03T14:37:07.924Z,40.57
2018-08-03T14:39:36.529Z,40.02
2018-08-03T14:42:05.950Z,40.03
2018-08-03T14:44:35.586Z,39.85
2018-08-03T14:47:05.629Z,40.20
2018-08-03T14:49:34.942Z,40.16
2018-08-03T14:52:05.315Z,40.18
2018-08-03T14:54:33.969Z,39.84
2018-08-03T14:57:03.420Z,39.67
2018-08-03T14:59:32.224Z,39.82
2018-08-03T15:02:00.937Z,40.20
2018-08-03T15:04:29.608Z,40.13
2018-08-03T15:06:58.491Z,40.31
2018-08-03T15:09:27.204Z,40.11
2018-08-03T15:11:55.951Z,39.74
2018-08-03T15:14:25.495Z,39.41
2018-08-03T15:16:54.186Z,39.00
2018-08-03T15:19:23.748Z,39.09
2018-08-03T15:21:52.499Z,39.36
2018-08-03T15:24:22.082Z,39.41
2018-08-03T15:26:50.965Z,39.38
2018-08-03T15:29:19.628Z,39.25
2018-08-03T15:31:48.885Z,38.99
2018-08-03T15:34:17.651Z,39.16
2018-08-03T15:36:46.462Z,39.25
2018-08-03T15:39:15.039Z,39.15
2018-08-03T15:41:44.218Z,39.56
2018-08-03T15:44:13.818Z,39.54
2018-08-03T15:46:43.885Z,39.37
2018-08-03T15:49:12.631Z,39.19
2018-08-03T15:51:41.418Z,39.18
2018-08-03T15:54:10.021Z,38.73
2018-08-03T15:56:38.706Z,38.13
2018-08-03T15:59:07.383Z,37.94
2018-08-03T16:01:36.060Z,37.57
2018-08-03T16:04:04.889Z,37.53
2018-08-03T16:06:36.724Z,37.37
2018-08-03T16:09:08.828Z,37.33
2018-08-03T16:11:37.470Z,37.37
2018-08-03T16:14:07.561Z,37.26
2018-08-03T16:16:36.259Z,37.12
2018-08-03T16:19:04.919Z,37.17
2018-08-03T16:21:34.548Z,36.99
2018-08-03T16:24:03.617Z,37.10
2018-08-03T16:26:33.279Z,37.14
2018-08-03T16:29:01.951Z,36.99
2018-08-03T16:31:31.017Z,36.94
2018-08-03T16:33:59.909Z,36.85
2018-08-03T16:36:28.650Z,36.79
2018-08-03T16:39:03.750Z,36.61
2018-08-03T16:41:32.615Z,36.59
2018-08-03T16:44:01.346Z,36.66
2018-08-03T16:46:30.264Z,36.65
2018-08-03T16:48:58.893Z,36.43
2018-08-03T16:51:27.967Z,36.49
2018-08-03T16:53:56.694Z,36.51
2018-08-03T16:56:25.358Z,36.43
2018-08-03T16:58:54.146Z,36.33
2018-08-03T17:01:22.950Z,36.25
2018-08-03T17:03:51.630Z,36.10
2018-08-03T17:06:20.308Z,35.93
2018-08-03T17:08:48.938Z,35.81
2018-08-03T17:11:17.600Z,35.63
2018-08-03T17:13:46.274Z,35.54
2018-08-03T17:16:14.950Z,35.60
2018-08-03T17:18:44.329Z,35.51
2018-08-03T17:21:13.131Z,35.34
2018-08-03T17:23:41.836Z,35.38
2018-08-03T17:26:10.458Z,35.32
2018-08-03T17:28:39.275Z,35.23
2018-08-03T17:31:08.482Z,35.22
2018-08-03T17:33:37.147Z,35.24
2018-08-03T17:36:06.175Z,35.24
2018-08-03T17:38:34.788Z,35.17
2018-08-03T17:41:04.173Z,35.17
2018-08-03T17:43:32.871Z,35.17
2018-08-03T17:46:01.528Z,35.09
2018-08-03T17:48:30.873Z,35.01
2018-08-03T17:51:00.646Z,35.02
2018-08-03T17:53:29.380Z,34.95
2018-08-03T17:55:59.017Z,34.91
2018-08-03T17:58:28.370Z,34.88
2018-08-03T18:00:57.059Z,34.82
2018-08-03T18:03:25.769Z,34.77
2018-08-03T18:05:54.517Z,34.69
2018-08-03T18:08:23.172Z,34.68
2018-08-03T18:10:52.636Z,34.70
2018-08-03T18:13:21.307Z,34.67
2018-08-03T18:15:50.019Z,34.63
2018-08-03T18:18:18.577Z,34.52
2018-08-03T18:20:47.297Z,34.43
2018-08-03T18:23:15.965Z,34.36
2018-08-03T18:25:49.021Z,34.34
2018-08-03T18:28:18.342Z,34.33
2018-08-03T18:30:47.112Z,34.28
2018-08-03T18:33:15.745Z,34.19
2018-08-03T18:35:45.018Z,34.17
2018-08-03T18:38:13.979Z,34.11
2018-08-03T18:40:42.586Z,34.06
2018-08-03T18:43:11.609Z,33.99
2018-08-03T18:45:40.474Z,33.89
2018-08-03T18:48:09.225Z,33.80
2018-08-03T18:50:37.891Z,33.70
2018-08-03T18:53:06.721Z,33.63
2018-08-03T18:55:36.433Z,33.52
2018-08-03T18:58:05.226Z,33.42
2018-08-03T19:00:33.942Z,33.35
2018-08-03T19:03:03.465Z,33.24
2018-08-03T19:05:32.831Z,33.11
2018-08-03T19:08:01.611Z,33.04
2018-08-03T19:10:30.342Z,33.02
2018-08-03T19:12:59.017Z,32.96
2018-08-03T19:15:28.262Z,32.94
2018-08-03T19:17:56.925Z,32.89
2018-08-03T19:20:25.602Z,32.83
2018-08-03T19:22:55.100Z,32.75
2018-08-03T19:25:24.176Z,32.68
2018-08-03T19:27:52.908Z,32.59
2018-08-03T19:30:21.575Z,32.55
2018-08-03T19:32:50.849Z,32.52
2018-08-03T19:35:19.603Z,32.44
2018-08-03T19:37:48.670Z,32.37
2018-08-03T19:40:17.987Z,32.28
2018-08-03T19:42:46.845Z,32.24
2018-08-03T19:45:15.968Z,32.17
2018-08-03T19:47:44.711Z,32.00
2018-08-03T19:50:13.645Z,31.96
2018-08-03T19:52:42.834Z,31.94
2018-08-03T19:55:11.557Z,31.92
2018-08-03T19:57:40.766Z,31.84
2018-08-03T20:00:11.654Z,31.80
2018-08-03T20:02:41.012Z,31.66
2018-08-03T20:05:11.344Z,31.56
2018-08-03T20:07:39.971Z,31.47
2018-08-03T20:10:09.469Z,31.38
2018-08-03T20:12:38.118Z,31.39
2018-08-03T20:15:07.449Z,31.27
2018-08-03T20:17:36.166Z,31.16
2018-08-03T20:20:04.970Z,31.07
2018-08-03T20:22:33.694Z,30.95
2018-08-03T20:25:02.393Z,30.95
2018-08-03T20:27:31.249Z,30.84
2018-08-03T20:29:59.988Z,30.75
2018-08-03T20:32:28.681Z,30.73
2018-08-03T20:34:57.518Z,30.71
2018-08-03T20:37:26.491Z,30.70
2018-08-03T20:39:55.312Z,30.76
2018-08-03T20:42:24.085Z,30.75
2018-08-03T20:44:53.124Z,30.63
2018-08-03T20:47:21.848Z,30.63
2018-08-03T20:49:50.693Z,30.57
2018-08-03T20:52:19.659Z,30.57
2018-08-03T20:54:49.236Z,30.56
2018-08-03T20:57:18.203Z,30.45
2018-08-03T20:59:46.879Z,30.45
2018-08-03T21:02:15.477Z,30.37
2018-08-03T21:04:44.470Z,30.33
2018-08-03T21:07:13.115Z,30.23
2018-08-03T21:09:41.876Z,30.00
2018-08-03T21:12:10.619Z,29.91
2018-08-03T21:14:40.075Z,29.90
2018-08-03T21:17:08.723Z,29.93
2018-08-03T21:19:37.361Z,29.81
2018-08-03T21:22:06.047Z,29.75
2018-08-03T21:24:34.849Z,29.66
2018-08-03T21:27:03.829Z,29.54
2018-08-03T21:29:32.519Z,29.45
2018-08-03T21:32:01.132Z,29.35
2018-08-03T21:34:29.771Z,29.24
2018-08-03T21:36:58.519Z,29.39
2018-08-03T21:39:27.213Z,29.38
2018-08-03T21:41:55.885Z,29.39
2018-08-03T21:44:25.226Z,29.40
2018-08-03T21:46:54.633Z,29.31
2018-08-03T21:49:23.262Z,28.93
2018-08-03T21:51:51.902Z,28.97
2018-08-03T21:54:21.421Z,28.89
2018-08-03T21:56:50.758Z,28.81
2018-08-03T21:59:19.378Z,28.61
2018-08-03T22:01:48.952Z,28.67
2018-08-03T22:04:17.577Z,28.69
2018-08-03T22:06:46.489Z,28.69
2018-08-03T22:09:15.100Z,28.75
2018-08-03T22:11:43.841Z,28.78
2018-08-03T22:14:12.518Z,28.72
2018-08-03T22:16:41.164Z,28.70
2018-08-03T22:19:09.809Z,28.69
2018-08-03T22:21:38.421Z,28.58
2018-08-03T22:24:07.064Z,28.53
2018-08-03T22:26:36.551Z,28.57
2018-08-03T22:29:05.327Z,28.62
2018-08-03T22:31:34.513Z,28.60
2018-08-03T22:34:03.898Z,28.53
2018-08-03T22:36:32.582Z,28.47
2018-08-03T22:39:01.708Z,28.44
2018-08-03T22:41:30.720Z,28.43
2018-08-03T22:43:59.414Z,28.43
2018-08-03T22:46:28.082Z,28.41
2018-08-03T22:48:56.732Z,28.35
2018-08-03T22:51:25.410Z,28.21
2018-08-03T22:53:54.714Z,28.14
2018-08-03T22:56:23.333Z,28.04
2018-08-03T22:58:52.710Z,28.02
2018-08-03T23:01:21.433Z,28.08
2018-08-03T23:03:50.256Z,28.12
2018-08-03T23:06:19.118Z,28.13
2018-08-03T23:08:48.906Z,28.12
2018-08-03T23:11:18.337Z,28.11
2018-08-03T23:13:47.010Z,28.10
2018-08-03T23:16:15.666Z,28.02
2018-08-03T23:18:44.331Z,27.92
2018-08-03T23:21:12.990Z,27.82
2018-08-03T23:23:41.711Z,27.82
2018-08-03T23:26:10.409Z,27.86
2018-08-03T23:28:39.212Z,27.79
2018-08-03T23:31:07.980Z,27.71
2018-08-03T23:33:37.327Z,27.76
2018-08-03T23:36:06.179Z,27.65
2018-08-03T23:38:34.788Z,27.49
2018-08-03T23:41:03.472Z,27.30
2018-08-03T23:43:32.868Z,27.25
2018-08-03T23:46:01.680Z,27.30
2018-08-03T23:48:30.294Z,27.24
2018-08-03T23:50:59.193Z,27.23
2018-08-03T23:53:28.318Z,27.29
2018-08-03T23:55:56.927Z,27.19
2018-08-03T23:58:25.625Z,27.07
